CheckWX is a tool to help pilots better visualize weather data.  It is not intended as a substitute for an official pre-flight weather briefing.

19:47:13 UTC

7L2 METAR
Linton Municipal Airport
Linton, North Dakota, USA
Current

32 mins ago

K7L2 291915Z AUTO 22003KT M1/4SM FZFG OVC003 M06/M06 A3009 RMK AO2
Observed
Jan-29 @ 19:15 UTC
Wind
  • 220° at 3 KTS
Visibility
1/4 SM
Flight Rules
LIFR
Conditions
Freezing Fog
Cloud Levels
  • Overcast at 300' AGL
Temperature
-6°C / 21°F
Dewpoint
-6°C / 21°F
Humidity
100%
Altimeter
30.09" Hg
Pressure
1018.92 hPa
Previous

52 mins ago

K7L2 291855Z AUTO 00000KT M1/4SM FZFG OVC003 M06/M06 A3009 RMK AO2
Observed
Jan-29 @ 18:55 UTC
Visibility
1/4 SM
Flight Rules
LIFR
Conditions
Freezing Fog
Cloud Levels
  • Overcast at 300' AGL
Temperature
-6°C / 21°F
Dewpoint
-6°C / 21°F
Humidity
100%
Altimeter
30.09" Hg
Pressure
1018.92 hPa
Previous

1 hour ago

K7L2 291835Z AUTO 00000KT 1/4SM FZFG OVC003 M06/M06 A3010 RMK AO2
Observed
Jan-29 @ 18:35 UTC
Visibility
1/4 SM
Flight Rules
LIFR
Conditions
Freezing Fog
Cloud Levels
  • Overcast at 300' AGL
Temperature
-6°C / 21°F
Dewpoint
-6°C / 21°F
Humidity
100%
Altimeter
30.1" Hg
Pressure
1019.32 hPa